createdAt,value
2022-10-06T00:01:22.343Z,6.55
2022-10-06T00:03:51.014Z,5.57
2022-10-06T00:06:20.622Z,6.20
2022-10-06T00:08:49.706Z,5.93
2022-10-06T00:11:18.439Z,6.35
2022-10-06T00:13:47.409Z,6.13
2022-10-06T00:16:23.547Z,6.30
2022-10-06T00:18:52.470Z,5.88
2022-10-06T00:21:21.277Z,6.05
2022-10-06T00:23:49.947Z,6.35
2022-10-06T00:26:18.555Z,5.97
2022-10-06T00:28:48.875Z,6.13
2022-10-06T00:31:20.426Z,5.15
2022-10-06T00:33:51.346Z,5.72
2022-10-06T00:36:21.198Z,6.18
2022-10-06T00:38:51.659Z,5.60
2022-10-06T00:41:20.348Z,5.68
2022-10-06T00:43:52.531Z,5.97
2022-10-06T00:46:35.047Z,5.13
2022-10-06T00:49:14.829Z,5.75
2022-10-06T00:51:49.412Z,5.47
2022-10-06T00:54:20.684Z,5.60
2022-10-06T00:56:49.766Z,5.40
2022-10-06T00:59:20.358Z,5.00
2022-10-06T01:01:57.700Z,4.88
2022-10-06T01:04:28.254Z,4.90
2022-10-06T01:07:01.773Z,4.78
2022-10-06T01:09:32.591Z,4.97
2022-10-06T01:12:06.396Z,4.53
2022-10-06T01:14:37.846Z,4.63
2022-10-06T01:17:15.328Z,4.38
2022-10-06T01:19:53.716Z,5.18
2022-10-06T01:22:30.697Z,5.05
2022-10-06T01:24:59.902Z,4.40
2022-10-06T01:27:33.017Z,4.53
2022-10-06T01:30:03.200Z,4.15
2022-10-06T01:32:37.209Z,4.53
2022-10-06T01:35:09.928Z,4.70
2022-10-06T01:37:40.106Z,4.57
2022-10-06T01:40:10.144Z,4.70
2022-10-06T01:42:39.339Z,4.43
2022-10-06T01:45:09.860Z,4.32
2022-10-06T01:47:38.693Z,4.55
2022-10-06T01:50:09.100Z,5.05
2022-10-06T01:52:39.701Z,4.38
2022-10-06T01:55:10.821Z,4.82
2022-10-06T01:57:40.977Z,4.68
2022-10-06T02:00:12.970Z,4.60
2022-10-06T02:02:42.236Z,4.80
2022-10-06T02:05:11.589Z,4.40
2022-10-06T02:07:47.593Z,4.45
2022-10-06T02:10:18.091Z,4.95
2022-10-06T02:12:52.846Z,5.07
2022-10-06T02:15:23.411Z,4.60
2022-10-06T02:17:53.839Z,4.50
2022-10-06T02:20:23.511Z,4.70
2022-10-06T02:22:53.488Z,4.30
2022-10-06T02:25:22.375Z,4.07
2022-10-06T02:27:51.143Z,4.85
2022-10-06T02:30:20.193Z,4.63
2022-10-06T02:32:49.305Z,4.25
2022-10-06T02:35:18.398Z,4.40
2022-10-06T02:37:47.087Z,4.28
2022-10-06T02:40:21.511Z,4.85
2022-10-06T02:42:50.186Z,4.25
2022-10-06T02:45:21.895Z,4.35
2022-10-06T02:47:51.855Z,4.10
2022-10-06T02:50:20.726Z,4.47
2022-10-06T02:52:49.625Z,4.30
2022-10-06T02:55:18.351Z,4.50
2022-10-06T02:57:48.291Z,4.45
2022-10-06T03:00:17.217Z,4.13
2022-10-06T03:02:49.888Z,4.45
2022-10-06T03:05:18.745Z,4.28
2022-10-06T03:07:48.448Z,3.85
2022-10-06T03:10:17.805Z,4.22
2022-10-06T03:12:47.949Z,3.85
2022-10-06T03:15:16.731Z,4.53
2022-10-06T03:17:49.931Z,4.13
2022-10-06T03:20:18.757Z,4.32
2022-10-06T03:22:47.513Z,4.65
2022-10-06T03:25:17.998Z,4.07
2022-10-06T03:27:48.506Z,3.95
2022-10-06T03:30:18.106Z,4.07
2022-10-06T03:32:47.709Z,4.00
2022-10-06T03:35:16.791Z,4.10
2022-10-06T03:37:46.088Z,4.43
2022-10-06T03:40:15.917Z,4.35
2022-10-06T03:42:44.807Z,4.40
2022-10-06T03:45:15.141Z,3.70
2022-10-06T03:47:43.737Z,4.25
2022-10-06T03:50:12.695Z,4.38
2022-10-06T03:52:41.289Z,3.92
2022-10-06T03:55:11.992Z,4.25
2022-10-06T03:57:42.451Z,3.80
2022-10-06T04:00:14.891Z,3.85
2022-10-06T04:02:44.304Z,4.10
2022-10-06T04:05:12.894Z,4.28
2022-10-06T04:07:41.710Z,3.80
2022-10-06T04:10:11.481Z,4.80
2022-10-06T04:12:40.136Z,4.30
2022-10-06T04:15:10.326Z,4.20
2022-10-06T04:17:40.259Z,4.40
2022-10-06T04:20:09.372Z,4.78
2022-10-06T04:22:38.230Z,4.20
2022-10-06T04:25:08.501Z,4.50
2022-10-06T04:27:37.185Z,4.18
2022-10-06T04:30:11.418Z,4.00
2022-10-06T04:32:42.458Z,4.30
2022-10-06T04:35:13.006Z,4.15
2022-10-06T04:37:41.718Z,4.13
2022-10-06T04:40:11.443Z,4.05
2022-10-06T04:42:41.380Z,4.10
2022-10-06T04:45:14.458Z,4.68
2022-10-06T04:47:45.789Z,4.63
2022-10-06T04:50:14.778Z,4.55
2022-10-06T04:53:02.298Z,4.05
2022-10-06T04:55:30.960Z,4.32
2022-10-06T04:57:59.917Z,4.13
2022-10-06T05:00:29.028Z,4.30
2022-10-06T05:03:00.262Z,4.60
2022-10-06T05:05:29.409Z,4.40
2022-10-06T05:07:59.187Z,4.47
2022-10-06T05:10:28.565Z,4.78
2022-10-06T05:12:58.019Z,4.57
2022-10-06T05:15:28.168Z,4.53
2022-10-06T05:17:56.970Z,4.40
2022-10-06T05:20:27.175Z,4.40
2022-10-06T05:22:56.045Z,4.57
2022-10-06T05:25:25.291Z,4.40
2022-10-06T05:27:53.859Z,4.63
2022-10-06T05:30:22.594Z,4.22
2022-10-06T05:32:52.247Z,3.92
2022-10-06T05:35:21.382Z,4.78
2022-10-06T05:37:51.778Z,4.70
2022-10-06T05:40:20.660Z,4.47
2022-10-06T05:42:49.596Z,4.18
2022-10-06T05:45:18.266Z,5.35
2022-10-06T05:47:47.144Z,4.55
2022-10-06T05:50:16.844Z,4.80
2022-10-06T05:52:45.648Z,4.50
2022-10-06T05:55:15.922Z,6.80
2022-10-06T05:57:44.559Z,6.82
2022-10-06T06:00:14.274Z,5.00
2022-10-06T06:02:44.764Z,5.20
2022-10-06T06:05:15.695Z,4.63
2022-10-06T06:07:44.371Z,4.90
2022-10-06T06:10:12.967Z,5.15
2022-10-06T06:12:43.128Z,4.70
2022-10-06T06:16:09.876Z,4.90
2022-10-06T06:18:38.873Z,5.35
2022-10-06T06:21:11.967Z,4.78
2022-10-06T06:23:44.308Z,4.90
2022-10-06T06:26:16.242Z,5.10
2022-10-06T06:28:50.952Z,5.10
2022-10-06T06:31:23.602Z,4.65
2022-10-06T06:33:57.207Z,4.53
2022-10-06T06:36:32.683Z,4.60
2022-10-06T06:39:01.626Z,4.90
2022-10-06T06:41:32.912Z,4.45
2022-10-06T06:44:18.517Z,5.40
2022-10-06T06:47:03.135Z,4.90
2022-10-06T06:49:32.170Z,4.60
2022-10-06T06:52:05.978Z,4.70
2022-10-06T06:54:36.959Z,5.25
2022-10-06T06:57:14.998Z,4.38
2022-10-06T06:59:45.645Z,4.40
2022-10-06T07:02:17.089Z,4.50
2022-10-06T07:04:47.743Z,4.70
2022-10-06T07:07:19.572Z,4.78
2022-10-06T07:09:48.241Z,3.75
2022-10-06T07:12:18.911Z,3.60
2022-10-06T07:15:11.798Z,4.57
2022-10-06T07:18:01.068Z,4.10
2022-10-06T07:20:48.621Z,4.72
2022-10-06T07:23:39.174Z,4.38
2022-10-06T07:26:14.961Z,6.70
2022-10-06T07:28:44.283Z,4.53
2022-10-06T07:31:17.717Z,4.43
2022-10-06T07:33:46.954Z,4.68
2022-10-06T07:36:16.861Z,4.28
2022-10-06T07:38:47.361Z,4.15
2022-10-06T07:41:20.606Z,4.65
2022-10-06T07:43:59.354Z,5.13
2022-10-06T07:46:33.797Z,5.03
2022-10-06T07:49:18.294Z,4.25
2022-10-06T07:51:47.616Z,5.07
2022-10-06T07:54:16.382Z,4.20
2022-10-06T07:57:05.264Z,4.57
2022-10-06T07:59:35.205Z,4.30
2022-10-06T08:02:05.198Z,4.00
2022-10-06T08:04:34.057Z,4.00
2022-10-06T08:07:02.844Z,4.00
2022-10-06T08:09:31.684Z,4.20
2022-10-06T08:12:20.648Z,4.28
2022-10-06T08:14:49.211Z,5.00
2022-10-06T08:17:19.407Z,4.70
2022-10-06T08:19:48.661Z,4.00
2022-10-06T08:22:17.235Z,4.18
2022-10-06T08:25:04.814Z,4.38
2022-10-06T08:27:35.589Z,5.35
2022-10-06T08:30:05.667Z,4.97
2022-10-06T08:32:36.035Z,4.55
2022-10-06T08:35:04.997Z,4.80
2022-10-06T08:37:33.823Z,4.50
2022-10-06T08:40:02.475Z,5.75
2022-10-06T08:42:42.638Z,4.50
2022-10-06T08:45:18.132Z,4.03
2022-10-06T08:48:01.047Z,4.03
2022-10-06T08:50:38.965Z,3.97
2022-10-06T08:53:22.397Z,3.92
2022-10-06T08:56:04.903Z,3.63
2022-10-06T08:58:52.684Z,3.67
2022-10-06T09:01:26.058Z,3.88
2022-10-06T09:04:02.044Z,3.50
2022-10-06T09:06:45.780Z,4.03
2022-10-06T09:09:33.649Z,3.80
2022-10-06T09:12:18.573Z,3.67
2022-10-06T09:14:52.369Z,4.25
2022-10-06T09:17:31.604Z,4.18
2022-10-06T09:20:09.467Z,5.70
2022-10-06T09:22:39.498Z,5.28
2022-10-06T09:25:20.149Z,4.80
2022-10-06T09:27:55.604Z,4.38
2022-10-06T09:30:25.602Z,3.83
2022-10-06T09:33:00.550Z,4.50
2022-10-06T09:35:33.521Z,3.47
2022-10-06T09:38:08.544Z,4.18
2022-10-06T09:40:49.735Z,4.53
2022-10-06T09:43:25.727Z,4.15
2022-10-06T09:45:55.356Z,5.03
2022-10-06T09:48:27.319Z,3.88
2022-10-06T09:51:15.079Z,3.70
2022-10-06T09:53:45.797Z,3.90
2022-10-06T09:56:19.404Z,4.07
2022-10-06T09:58:57.416Z,3.90
2022-10-06T10:01:29.539Z,4.20
2022-10-06T10:04:21.034Z,4.50
2022-10-06T10:06:52.098Z,3.80
2022-10-06T10:09:41.820Z,4.50
2022-10-06T10:12:27.734Z,4.25
2022-10-06T10:15:01.406Z,4.32
2022-10-06T10:17:53.711Z,4.45
2022-10-06T10:20:34.370Z,3.60
2022-10-06T10:23:21.968Z,3.67
2022-10-06T10:26:18.892Z,4.15
2022-10-06T10:29:36.738Z,4.43
2022-10-06T10:32:15.934Z,5.00
2022-10-06T10:35:07.655Z,3.80
2022-10-06T10:37:45.220Z,4.47
2022-10-06T10:40:30.057Z,4.32
2022-10-06T10:43:13.686Z,4.28
2022-10-06T10:45:49.586Z,4.65
2022-10-06T10:48:30.561Z,4.63
2022-10-06T10:51:08.053Z,4.15
2022-10-06T10:53:48.660Z,4.03
2022-10-06T10:56:24.007Z,4.30
2022-10-06T10:59:01.998Z,4.25
2022-10-06T11:01:40.394Z,4.13
2022-10-06T11:04:13.396Z,3.75
2022-10-06T11:07:21.335Z,4.70
2022-10-06T11:10:01.685Z,3.90
2022-10-06T11:13:05.563Z,4.28
2022-10-06T11:15:55.332Z,4.88
2022-10-06T11:18:42.020Z,4.25
2022-10-06T11:21:17.412Z,3.53
2022-10-06T11:23:54.629Z,4.25
2022-10-06T11:27:10.679Z,3.50
2022-10-06T11:29:55.363Z,3.60
2022-10-06T11:32:31.349Z,3.30
2022-10-06T11:35:00.871Z,3.47
2022-10-06T11:37:46.917Z,3.55
2022-10-06T11:40:42.299Z,3.97
2022-10-06T11:43:28.930Z,3.65
2022-10-06T11:46:15.095Z,3.65
2022-10-06T11:48:43.966Z,3.60
2022-10-06T11:51:32.449Z,3.25
2022-10-06T11:54:01.319Z,3.47
2022-10-06T11:56:39.931Z,3.55
2022-10-06T11:59:31.397Z,3.58
2022-10-06T12:02:03.068Z,3.40
2022-10-06T12:04:32.191Z,3.20
2022-10-06T12:07:06.328Z,2.90
2022-10-06T12:09:53.395Z,2.92
2022-10-06T12:13:01.808Z,3.03
2022-10-06T12:19:23.317Z,3.00
2022-10-06T12:22:08.168Z,2.90
2022-10-06T12:24:44.938Z,2.63
2022-10-06T12:27:32.292Z,2.45
2022-10-06T12:30:07.440Z,3.90
2022-10-06T12:32:52.452Z,2.72
2022-10-06T12:35:34.724Z,3.00
2022-10-06T12:38:07.864Z,3.17
2022-10-06T12:40:47.051Z,2.80
2022-10-06T12:44:00.666Z,2.70
2022-10-06T12:46:44.681Z,3.20
2022-10-06T12:49:41.404Z,3.63
2022-10-06T12:52:43.347Z,2.90
2022-10-06T12:55:34.683Z,3.13
2022-10-06T12:58:03.248Z,3.10
2022-10-06T13:00:37.050Z,2.90
2022-10-06T13:03:09.029Z,3.38
2022-10-06T13:05:38.563Z,3.35
2022-10-06T13:08:23.604Z,3.47
2022-10-06T13:10:52.638Z,3.00
2022-10-06T13:13:24.945Z,2.90
2022-10-06T13:16:00.643Z,2.72
2022-10-06T13:18:30.303Z,2.83
2022-10-06T13:21:01.829Z,2.63
2022-10-06T13:23:34.077Z,2.42
2022-10-06T13:26:05.793Z,2.50
2022-10-06T13:28:49.392Z,2.15
2022-10-06T13:31:24.677Z,1.95
2022-10-06T13:34:00.861Z,1.92
2022-10-06T13:36:31.938Z,2.55
2022-10-06T13:39:05.016Z,3.05
2022-10-06T13:41:37.596Z,1.92
2022-10-06T13:44:31.718Z,1.95
2022-10-06T13:47:05.238Z,1.90
2022-10-06T13:49:48.687Z,1.70
2022-10-06T13:52:21.699Z,2.08
2022-10-06T13:54:55.742Z,1.70
2022-10-06T13:57:41.407Z,1.75
2022-10-06T14:00:23.745Z,1.80
2022-10-06T14:02:56.665Z,1.50
2022-10-06T14:05:32.868Z,1.70
2022-10-06T14:08:04.907Z,1.90
2022-10-06T14:10:47.579Z,1.70
2022-10-06T14:13:21.372Z,1.58
2022-10-06T14:15:53.098Z,2.10
2022-10-06T14:18:26.060Z,2.05
2022-10-06T14:20:57.193Z,1.67
2022-10-06T14:23:50.494Z,1.90
2022-10-06T14:26:28.088Z,1.80
2022-10-06T14:28:58.556Z,1.90
2022-10-06T14:31:29.488Z,1.70
2022-10-06T14:33:58.538Z,1.70
2022-10-06T14:36:29.866Z,2.25
2022-10-06T14:39:00.764Z,1.67
2022-10-06T14:41:31.440Z,1.60
2022-10-06T14:44:03.027Z,1.17
2022-10-06T14:46:32.030Z,1.50
2022-10-06T14:49:03.262Z,1.33
2022-10-06T14:51:36.602Z,1.33
2022-10-06T14:54:07.761Z,1.40
2022-10-06T14:56:39.416Z,1.40
2022-10-06T14:59:12.000Z,1.40
2022-10-06T15:01:41.167Z,1.50
2022-10-06T15:04:12.372Z,1.27
2022-10-06T15:07:00.388Z,1.40
2022-10-06T15:09:31.017Z,1.38
2022-10-06T15:12:01.838Z,1.35
2022-10-06T15:14:31.164Z,1.45
2022-10-06T15:17:00.339Z,1.20
2022-10-06T15:19:29.555Z,1.38
2022-10-06T15:21:58.400Z,1.55
2022-10-06T15:24:27.221Z,1.33
2022-10-06T15:27:13.271Z,1.33
2022-10-06T15:29:43.438Z,1.55
2022-10-06T15:32:11.996Z,1.83
2022-10-06T15:34:40.612Z,1.75
2022-10-06T15:37:09.370Z,1.50
2022-10-06T15:39:38.603Z,1.35
2022-10-06T15:42:08.722Z,1.42
2022-10-06T15:44:38.069Z,1.65
2022-10-06T15:47:08.975Z,1.83
2022-10-06T15:49:41.633Z,1.50
2022-10-06T15:52:13.284Z,1.90
2022-10-06T15:54:43.860Z,1.50
2022-10-06T15:57:19.726Z,1.77
2022-10-06T15:59:50.012Z,2.03
2022-10-06T16:02:22.373Z,2.13
2022-10-06T16:05:17.374Z,2.00
2022-10-06T16:07:46.310Z,2.65
2022-10-06T16:10:15.213Z,1.88
2022-10-06T16:12:43.806Z,2.05
2022-10-06T16:15:12.616Z,1.88
2022-10-06T16:17:42.536Z,2.28
2022-10-06T16:20:11.667Z,1.88
2022-10-06T16:22:41.205Z,1.95
2022-10-06T16:25:10.654Z,2.33
2022-10-06T16:27:39.550Z,1.80
2022-10-06T16:30:10.161Z,2.08
2022-10-06T16:32:38.953Z,2.20
2022-10-06T16:35:13.578Z,2.63
2022-10-06T16:37:50.026Z,2.35
2022-10-06T16:40:19.030Z,2.33
2022-10-06T16:42:47.594Z,2.97
2022-10-06T16:45:16.816Z,2.90
2022-10-06T16:47:45.584Z,2.65
2022-10-06T16:50:15.727Z,3.20
2022-10-06T16:52:44.312Z,2.95
2022-10-06T16:55:13.234Z,2.88
2022-10-06T16:57:41.859Z,2.63
2022-10-06T17:00:13.019Z,2.78
2022-10-06T17:02:42.121Z,2.80
2022-10-06T17:05:10.846Z,2.83
2022-10-06T17:07:40.846Z,3.60
2022-10-06T17:10:25.564Z,3.70
2022-10-06T17:12:54.163Z,3.85
2022-10-06T17:15:23.025Z,3.88
2022-10-06T17:17:51.586Z,3.30
2022-10-06T17:20:20.361Z,3.63
2022-10-06T17:22:51.477Z,3.88
2022-10-06T17:25:20.118Z,3.80
2022-10-06T17:27:48.875Z,4.00
2022-10-06T17:30:17.541Z,4.35
2022-10-06T17:32:47.364Z,4.82
2022-10-06T17:35:16.783Z,4.47
2022-10-06T17:37:46.192Z,4.00
2022-10-06T17:40:16.379Z,4.85
2022-10-06T17:42:45.175Z,5.20
2022-10-06T17:45:17.650Z,4.47
2022-10-06T17:47:49.152Z,5.65
2022-10-06T17:50:17.966Z,5.15
2022-10-06T17:52:48.040Z,5.68
2022-10-06T17:55:18.427Z,5.63
2022-10-06T17:57:46.992Z,5.80
2022-10-06T18:00:18.204Z,6.50
2022-10-06T18:02:47.019Z,5.95
2022-10-06T18:05:16.094Z,6.10
2022-10-06T18:07:44.671Z,6.60
2022-10-06T18:10:32.633Z,7.40
2022-10-06T18:13:02.616Z,7.95
2022-10-06T18:15:36.326Z,9.10
2022-10-06T18:18:05.737Z,10.00
2022-10-06T18:20:40.095Z,10.02
2022-10-06T18:23:09.529Z,11.60
2022-10-06T18:25:38.264Z,11.80
2022-10-06T18:28:08.684Z,12.80
2022-10-06T18:30:37.380Z,12.68
2022-10-06T18:36:14.822Z,14.63
2022-10-06T18:38:47.074Z,15.65
2022-10-06T18:41:19.401Z,18.15
2022-10-06T18:43:50.325Z,18.05
2022-10-06T18:46:37.218Z,18.30
2022-10-06T18:49:12.117Z,18.35
2022-10-06T18:51:43.001Z,19.23
2022-10-06T18:54:15.332Z,18.75
2022-10-06T18:56:49.976Z,18.48
2022-10-06T18:59:23.374Z,16.67
2022-10-06T19:01:52.363Z,17.10
2022-10-06T19:04:23.735Z,17.25
2022-10-06T19:06:54.846Z,15.68
2022-10-06T19:09:25.783Z,16.98
2022-10-06T19:11:57.902Z,16.95
2022-10-06T19:14:31.663Z,16.27
2022-10-06T19:17:03.413Z,15.98
2022-10-06T19:19:34.029Z,16.52
2022-10-06T19:22:05.218Z,16.27
2022-10-06T19:24:37.222Z,14.80
2022-10-06T19:27:12.230Z,16.38
2022-10-06T19:29:46.171Z,15.23
2022-10-06T19:32:18.697Z,14.98
2022-10-06T19:34:48.513Z,15.13
2022-10-06T19:37:17.952Z,15.68
2022-10-06T19:39:50.261Z,17.33
2022-10-06T19:42:38.357Z,18.60
2022-10-06T19:45:11.823Z,17.75
2022-10-06T19:47:41.485Z,19.77
2022-10-06T19:50:12.640Z,17.27
2022-10-06T19:52:42.392Z,17.05
2022-10-06T19:55:11.165Z,17.92
2022-10-06T19:57:39.708Z,17.10
2022-10-06T20:00:11.991Z,17.67
2022-10-06T20:02:44.280Z,17.08
2022-10-06T20:05:15.925Z,18.13
2022-10-06T20:07:47.670Z,17.70
2022-10-06T20:10:17.127Z,15.95
2022-10-06T20:12:45.825Z,15.88
2022-10-06T20:15:15.748Z,16.23
2022-10-06T20:17:45.561Z,15.73
2022-10-06T20:20:15.250Z,16.75
2022-10-06T20:22:43.935Z,16.48
2022-10-06T20:25:12.708Z,16.90
2022-10-06T20:27:41.613Z,16.67
2022-10-06T20:30:11.517Z,16.50
2022-10-06T20:32:42.320Z,16.98
2022-10-06T20:35:10.906Z,16.77
2022-10-06T20:37:42.048Z,17.42
2022-10-06T20:40:29.037Z,16.25
2022-10-06T20:42:59.457Z,16.00
2022-10-06T20:45:29.806Z,15.77
2022-10-06T20:48:00.144Z,16.00
2022-10-06T20:50:31.330Z,15.77
2022-10-06T20:52:59.876Z,15.27
2022-10-06T20:55:28.442Z,15.43
2022-10-06T20:57:57.219Z,15.45
2022-10-06T21:00:25.819Z,15.90
2022-10-06T21:02:54.562Z,15.32
2022-10-06T21:05:24.790Z,16.02
2022-10-06T21:07:53.432Z,15.98
2022-10-06T21:10:23.049Z,15.40
2022-10-06T21:12:51.840Z,15.77
2022-10-06T21:15:20.443Z,16.25
2022-10-06T21:17:49.181Z,16.13
2022-10-06T21:20:18.416Z,14.85
2022-10-06T21:22:48.474Z,16.60
2022-10-06T21:25:17.359Z,15.65
2022-10-06T21:27:47.314Z,16.65
2022-10-06T21:30:16.113Z,17.02
2022-10-06T21:32:44.676Z,18.42
2022-10-06T21:35:13.463Z,17.92
2022-10-06T21:37:42.318Z,17.25
2022-10-06T21:40:12.958Z,17.98
2022-10-06T21:42:41.784Z,17.88
2022-10-06T21:45:11.288Z,16.60
2022-10-06T21:47:39.902Z,18.10
2022-10-06T21:50:09.911Z,17.75
2022-10-06T21:52:38.507Z,18.58
2022-10-06T21:55:08.616Z,18.05
2022-10-06T21:57:38.571Z,17.83
2022-10-06T22:00:11.170Z,18.17
2022-10-06T22:02:42.049Z,18.35
2022-10-06T22:05:10.939Z,18.88
2022-10-06T22:07:39.516Z,19.65
2022-10-06T22:10:09.110Z,17.70
2022-10-06T22:12:39.044Z,19.02
2022-10-06T22:15:08.484Z,18.20
2022-10-06T22:17:37.222Z,18.60
2022-10-06T22:20:07.456Z,17.25
2022-10-06T22:22:36.249Z,17.98
2022-10-06T22:25:05.917Z,17.92
2022-10-06T22:27:34.543Z,17.05
2022-10-06T22:30:05.481Z,18.92
2022-10-06T22:32:34.286Z,18.02
2022-10-06T22:35:03.379Z,17.27
2022-10-06T22:37:32.044Z,16.60
2022-10-06T22:40:05.361Z,17.35
2022-10-06T22:42:35.992Z,17.38
2022-10-06T22:45:07.704Z,16.30
2022-10-06T22:47:36.283Z,16.77
2022-10-06T22:50:07.318Z,16.73
2022-10-06T22:52:36.082Z,17.70
2022-10-06T22:55:05.299Z,16.23
2022-10-06T22:57:33.938Z,17.52
2022-10-06T23:00:02.751Z,17.80
2022-10-06T23:02:33.576Z,20.02
2022-10-06T23:05:02.150Z,19.80
2022-10-06T23:07:31.228Z,20.92
2022-10-06T23:09:59.883Z,23.48
2022-10-06T23:12:28.529Z,21.65
2022-10-06T23:14:57.386Z,23.02
2022-10-06T23:17:25.931Z,23.05
2022-10-06T23:19:55.880Z,21.48
2022-10-06T23:22:24.744Z,21.52
2022-10-06T23:24:53.547Z,21.50
2022-10-06T23:27:22.127Z,20.98
2022-10-06T23:29:50.939Z,19.52
2022-10-06T23:32:19.912Z,20.25
2022-10-06T23:34:48.677Z,20.05
2022-10-06T23:37:18.851Z,19.35
2022-10-06T23:39:47.502Z,18.90
2022-10-06T23:42:16.205Z,18.60
2022-10-06T23:44:45.009Z,17.63
2022-10-06T23:47:13.588Z,17.20
2022-10-06T23:49:43.657Z,16.38
2022-10-06T23:52:12.570Z,15.65
2022-10-06T23:54:42.473Z,15.68
2022-10-06T23:57:11.091Z,16.02
2022-10-06T23:59:39.835Z,15.52
